Time;durP1;ratioP1;P1;durP2;ratioP2;P2;SDS_P1;SDS_P2;PMS_P1;PMS_P2;Temp;Humidity;BMP_temperature;BMP_pressure;BME280_temperature;BME280_humidity;BME280_pressure;Samples;Min_cycle;Max_cycle;Signal;HPM_P1;HPM_P2
2023/05/19 00:00:13;;;;;;;3.13;1.77;;;;;;;;;;7374343;19;20020;-73
2023/05/19 00:02:39;;;;;;;8.27;2.03;;;;;;;;;;7373394;19;20002;-72
2023/05/19 00:05:05;;;;;;;4.55;1.60;;;;;;;;;;7372273;19;20442;-72
2023/05/19 00:07:31;;;;;;;3.35;1.85;;;;;;;;;;7371824;19;20007;-72
2023/05/19 00:09:57;;;;;;;3.80;1.65;;;;;;;;;;7412675;19;20010;-72
2023/05/19 00:12:22;;;;;;;7.25;2.00;;;;;;;;;;7381614;19;20002;-73
2023/05/19 00:14:48;;;;;;;6.45;2.10;;;;;;;;;;7380491;19;20002;-73
2023/05/19 00:17:15;;;;;;;6.80;1.70;;;;;;;;;;7379466;19;19999;-73
2023/05/19 00:19:41;;;;;;;5.38;1.92;;;;;;;;;;7380897;19;20101;-73
2023/05/19 00:22:06;;;;;;;8.93;2.22;;;;;;;;;;7388833;19;20461;-73
2023/05/19 00:24:32;;;;;;;6.22;1.98;;;;;;;;;;7391891;19;20022;-73
2023/05/19 00:26:57;;;;;;;4.03;1.70;;;;;;;;;;7376447;19;20384;-73
2023/05/19 00:29:22;;;;;;;9.55;2.40;;;;;;;;;;7374357;19;20090;-73
2023/05/19 00:31:48;;;;;;;5.70;1.98;;;;;;;;;;7372391;19;20010;-73
2023/05/19 00:34:13;;;;;;;3.65;1.75;;;;;;;;;;7371981;19;19998;-73
2023/05/19 00:36:39;;;;;;;6.38;1.90;;;;;;;;;;7393275;19;20464;-73
2023/05/19 00:39:04;;;;;;;5.07;1.95;;;;;;;;;;7369289;19;20007;-73
2023/05/19 00:41:29;;;;;;;8.43;2.03;;;;;;;;;;7372327;19;19999;-73
2023/05/19 00:43:55;;;;;;;8.00;1.90;;;;;;;;;;7370141;19;20002;-73
2023/05/19 00:46:21;;;;;;;6.10;1.95;;;;;;;;;;7369426;19;20026;-72
2023/05/19 00:48:47;;;;;;;7.45;2.25;;;;;;;;;;7392027;19;20420;-73
2023/05/19 00:51:15;;;;;;;5.45;1.80;;;;;;;;;;7370177;19;20013;-73
2023/05/19 00:53:42;;;;;;;4.97;2.00;;;;;;;;;;7372283;19;20019;-72
2023/05/19 00:56:08;;;;;;;5.80;2.17;;;;;;;;;;7372743;19;20009;-72
2023/05/19 00:58:35;;;;;;;5.60;1.92;;;;;;;;;;7372143;19;20006;-73
2023/05/19 01:01:06;;;;;;;4.20;1.80;;;;;;;;;;7394857;19;20003;-73
2023/05/19 01:03:36;;;;;;;3.80;1.75;;;;;;;;;;7373139;19;20066;-73
2023/05/19 01:06:06;;;;;;;11.85;2.58;;;;;;;;;;7372085;19;20002;-73
2023/05/19 01:08:36;;;;;;;5.97;2.30;;;;;;;;;;7373344;19;20002;-73
2023/05/19 01:11:03;;;;;;;6.03;1.77;;;;;;;;;;7372945;19;20020;-73
2023/05/19 01:13:29;;;;;;;8.07;2.20;;;;;;;;;;7373154;19;20010;-73
2023/05/19 01:15:54;;;;;;;7.35;2.00;;;;;;;;;;7393760;19;20009;-73
2023/05/19 01:18:36;;;;;;;10.73;2.30;;;;;;;;;;7370749;19;20013;-73
2023/05/19 01:21:35;;;;;;;4.78;2.00;;;;;;;;;;7372363;19;20255;-73
2023/05/19 01:24:14;;;;;;;6.07;2.05;;;;;;;;;;7371422;19;20031;-73
2023/05/19 01:27:08;;;;;;;7.15;2.47;;;;;;;;;;7371412;19;20025;-73
2023/05/19 01:29:49;;;;;;;7.78;2.20;;;;;;;;;;7372725;19;20010;-73
2023/05/19 01:32:18;;;;;;;6.50;2.07;;;;;;;;;;7373743;19;20014;-73
2023/05/19 01:34:46;;;;;;;6.93;2.08;;;;;;;;;;7374171;19;20319;-73
2023/05/19 01:37:15;;;;;;;5.22;2.20;;;;;;;;;;7370873;19;20358;-73
2023/05/19 01:39:43;;;;;;;15.40;2.50;;;;;;;;;;7393748;19;20647;-73
2023/05/19 01:42:09;;;;;;;6.45;2.00;;;;;;;;;;7373198;19;20006;-73
2023/05/19 01:44:35;;;;;;;11.95;2.40;;;;;;;;;;7373857;19;20006;-73
2023/05/19 01:47:01;;;;;;;12.63;2.20;;;;;;;;;;7373539;19;20014;-72
2023/05/19 01:49:26;;;;;;;6.55;2.05;;;;;;;;;;7375217;19;19999;-72
2023/05/19 01:51:52;;;;;;;10.32;2.17;;;;;;;;;;7395249;19;20030;-73
2023/05/19 01:54:17;;;;;;;6.35;2.13;;;;;;;;;;7371737;19;20007;-72
2023/05/19 01:57:07;;;;;;;5.93;1.80;;;;;;;;;;7370995;19;20045;-72
2023/05/19 01:59:45;;;;;;;3.45;2.00;;;;;;;;;;7372894;19;20006;-72
2023/05/19 02:02:39;;;;;;;14.45;1.80;;;;;;;;;;7372178;19;20403;-72
2023/05/19 02:05:13;;;;;;;5.07;1.90;;;;;;;;;;7372800;19;20019;-73
2023/05/19 02:07:47;;;;;;;5.93;1.95;;;;;;;;;;7371916;19;20006;-72
2023/05/19 02:10:22;;;;;;;15.55;2.10;;;;;;;;;;7370244;19;20775;-72
2023/05/19 02:12:52;;;;;;;7.43;2.10;;;;;;;;;;7393304;19;20010;-72
2023/05/19 02:15:23;;;;;;;7.78;1.90;;;;;;;;;;7370194;19;20014;-72
2023/05/19 02:17:50;;;;;;;;;;;;;;;;;;7371338;19;20006;-72
2023/05/19 02:20:16;;;;;;;8.48;2.85;;;;;;;;;;7374386;19;19914;-72
2023/05/19 02:22:42;;;;;;;8.48;2.28;;;;;;;;;;7373226;19;20013;-72
2023/05/19 02:25:08;;;;;;;9.05;2.00;;;;;;;;;;7372888;19;19998;-72
2023/05/19 02:27:35;;;;;;;6.93;1.83;;;;;;;;;;7397480;19;19994;-73
2023/05/19 02:30:02;;;;;;;5.68;1.90;;;;;;;;;;7376339;19;20018;-73
2023/05/19 02:32:27;;;;;;;5.07;1.80;;;;;;;;;;7377935;19;20010;-72
2023/05/19 02:34:55;;;;;;;6.32;1.90;;;;;;;;;;7375228;19;20468;-72
2023/05/19 02:37:22;;;;;;;9.50;1.98;;;;;;;;;;7369452;19;20006;-72
2023/05/19 02:39:48;;;;;;;8.35;2.00;;;;;;;;;;7392118;19;20506;-72
2023/05/19 02:42:16;;;;;;;4.93;2.05;;;;;;;;;;7370161;19;20736;-72
2023/05/19 02:44:41;;;;;;;8.77;1.85;;;;;;;;;;7371167;19;20516;-72
2023/05/19 02:47:07;;;;;;;3.95;1.60;;;;;;;;;;7370376;19;20082;-73
2023/05/19 02:49:35;;;;;;;5.22;1.98;;;;;;;;;;7379239;19;20006;-73
2023/05/19 02:52:02;;;;;;;3.95;1.75;;;;;;;;;;7401833;19;20031;-73
2023/05/19 02:54:31;;;;;;;3.17;1.60;;;;;;;;;;7380992;19;20019;-73
2023/05/19 02:56:57;;;;;;;8.50;2.00;;;;;;;;;;7383249;19;19998;-73
2023/05/19 02:59:23;;;;;;;9.85;2.30;;;;;;;;;;7384254;19;20018;-73
2023/05/19 03:01:49;;;;;;;3.42;1.90;;;;;;;;;;7383543;19;20006;-73
2023/05/19 03:04:14;;;;;;;10.93;2.72;;;;;;;;;;7384159;19;20037;-73
2023/05/19 03:06:41;;;;;;;5.05;1.60;;;;;;;;;;7404355;19;19998;-73
2023/05/19 03:09:07;;;;;;;7.13;2.00;;;;;;;;;;7382169;19;20010;-73
2023/05/19 03:11:32;;;;;;;8.55;2.05;;;;;;;;;;7375236;19;20488;-73
2023/05/19 03:13:57;;;;;;;7.30;1.88;;;;;;;;;;7377488;19;20023;-73
2023/05/19 03:16:23;;;;;;;3.97;1.95;;;;;;;;;;7379298;19;20027;-73
2023/05/19 03:18:49;;;;;;;5.32;2.00;;;;;;;;;;7400922;19;20003;-73
2023/05/19 03:21:14;;;;;;;6.85;2.00;;;;;;;;;;7378177;19;20148;-73
2023/05/19 03:23:39;;;;;;;5.07;2.08;;;;;;;;;;7377882;19;20022;-73
2023/05/19 03:26:05;;;;;;;4.78;1.83;;;;;;;;;;7378151;19;20015;-72
2023/05/19 03:28:30;;;;;;;5.25;1.90;;;;;;;;;;7377229;19;20011;-73
2023/05/19 03:30:55;;;;;;;6.82;2.00;;;;;;;;;;7398562;19;20006;-72
2023/05/19 03:33:22;;;;;;;6.18;1.90;;;;;;;;;;7376456;19;20472;-72
2023/05/19 03:35:47;;;;;;;6.15;2.05;;;;;;;;;;7374375;19;20393;-74
2023/05/19 03:38:13;;;;;;;13.45;2.40;;;;;;;;;;7372655;19;20014;-73
2023/05/19 03:40:40;;;;;;;8.25;2.20;;;;;;;;;;7376511;19;19998;-73
2023/05/19 03:43:06;;;;;;;5.60;2.05;;;;;;;;;;7396739;19;20039;-73
2023/05/19 03:45:31;;;;;;;6.07;2.10;;;;;;;;;;7375474;19;19999;-73
2023/05/19 03:47:56;;;;;;;7.68;1.90;;;;;;;;;;7376072;19;20011;-74
2023/05/19 03:50:22;;;;;;;8.00;2.08;;;;;;;;;;7375621;19;20419;-73
2023/05/19 03:52:47;;;;;;;5.85;2.10;;;;;;;;;;7375727;19;20143;-73
2023/05/19 03:55:18;;;;;;;5.25;2.10;;;;;;;;;;7375448;19;20068;-73
2023/05/19 03:57:44;;;;;;;;;;;;;;;;;;7395303;19;20006;-73
2023/05/19 04:00:11;;;;;;;5.38;1.92;;;;;;;;;;7371125;19;19926;-73
2023/05/19 04:02:36;;;;;;;8.63;2.17;;;;;;;;;;7375483;19;20066;-73
2023/05/19 04:05:03;;;;;;;6.70;2.10;;;;;;;;;;7374300;19;20006;-73
2023/05/19 04:07:29;;;;;;;4.55;1.90;;;;;;;;;;7375627;19;20010;-73
2023/05/19 04:09:55;;;;;;;6.40;2.03;;;;;;;;;;7404118;19;20337;-73
2023/05/19 04:12:20;;;;;;;6.43;2.05;;;;;;;;;;7382262;19;20003;-74
2023/05/19 04:14:46;;;;;;;3.35;1.75;;;;;;;;;;7381437;19;19994;-73
2023/05/19 04:17:11;;;;;;;5.78;2.00;;;;;;;;;;7378203;19;20002;-74
2023/05/19 04:19:36;;;;;;;3.95;1.83;;;;;;;;;;7382049;19;20020;-73
2023/05/19 04:22:02;;;;;;;5.47;2.22;;;;;;;;;;7403341;19;20002;-73
2023/05/19 04:24:27;;;;;;;4.57;1.75;;;;;;;;;;7376284;19;20003;-73
2023/05/19 04:26:53;;;;;;;5.72;1.83;;;;;;;;;;7374172;19;20543;-73
2023/05/19 04:29:18;;;;;;;6.28;2.00;;;;;;;;;;7376067;19;20010;-72
2023/05/19 04:31:44;;;;;;;7.10;2.05;;;;;;;;;;7373790;19;20002;-72
2023/05/19 04:34:09;;;;;;;8.23;2.22;;;;;;;;;;7376836;19;20019;-72
2023/05/19 04:36:35;;;;;;;6.80;2.22;;;;;;;;;;7396932;19;20015;-73
2023/05/19 04:39:08;;;;;;;9.18;2.08;;;;;;;;;;7374552;19;20352;-73
2023/05/19 04:41:34;;;;;;;5.22;1.70;;;;;;;;;;7375972;19;20002;-72
2023/05/19 04:43:59;;;;;;;4.55;2.20;;;;;;;;;;7375615;19;20011;-73
2023/05/19 04:46:25;;;;;;;6.80;2.05;;;;;;;;;;7372814;19;22093;-72
2023/05/19 04:48:52;;;;;;;7.38;1.83;;;;;;;;;;7396003;19;20043;-74
2023/05/19 04:51:18;;;;;;;5.70;1.85;;;;;;;;;;7374657;19;20070;-73
2023/05/19 04:53:44;;;;;;;7.75;2.25;;;;;;;;;;7379743;19;20483;-73
2023/05/19 04:56:13;;;;;;;6.07;2.17;;;;;;;;;;7387564;19;20014;-72
2023/05/19 04:58:40;;;;;;;8.45;2.08;;;;;;;;;;7389688;19;20010;-73
2023/05/19 05:01:05;;;;;;;7.05;2.25;;;;;;;;;;7409715;19;20010;-72
2023/05/19 05:03:33;;;;;;;5.72;2.13;;;;;;;;;;7386318;19;20006;-72
2023/05/19 05:05:58;;;;;;;9.48;2.17;;;;;;;;;;7384679;19;20007;-72
2023/05/19 05:08:24;;;;;;;4.22;1.80;;;;;;;;;;7376617;19;20499;-73
2023/05/19 05:10:51;;;;;;;4.90;1.88;;;;;;;;;;7376887;19;20483;-72
2023/05/19 05:13:17;;;;;;;9.40;2.20;;;;;;;;;;7380253;19;20014;-72
2023/05/19 05:15:43;;;;;;;4.03;1.90;;;;;;;;;;7399346;19;20018;-72
2023/05/19 05:18:08;;;;;;;8.00;2.05;;;;;;;;;;7377655;19;20006;-73
2023/05/19 05:20:34;;;;;;;5.03;2.00;;;;;;;;;;7375090;19;20003;-73
2023/05/19 05:23:00;;;;;;;5.35;2.08;;;;;;;;;;7373762;19;20054;-73
2023/05/19 05:25:26;;;;;;;5.07;1.83;;;;;;;;;;7373065;19;20019;-73
2023/05/19 05:27:51;;;;;;;6.22;2.17;;;;;;;;;;7393173;19;20345;-74
2023/05/19 05:30:17;;;;;;;10.38;2.20;;;;;;;;;;7376009;19;20117;-73
2023/05/19 05:32:42;;;;;;;9.43;1.98;;;;;;;;;;7373931;19;20006;-73
2023/05/19 05:35:08;;;;;;;6.55;1.95;;;;;;;;;;7373205;19;20010;-72
2023/05/19 05:37:33;;;;;;;7.82;2.40;;;;;;;;;;7370829;19;20006;-72
2023/05/19 05:39:58;;;;;;;7.78;2.10;;;;;;;;;;7393695;19;20010;-72
2023/05/19 05:42:24;;;;;;;5.65;1.83;;;;;;;;;;7370726;19;20014;-72
2023/05/19 05:44:49;;;;;;;4.22;1.90;;;;;;;;;;7370202;19;20027;-72
2023/05/19 05:47:15;;;;;;;3.67;1.80;;;;;;;;;;7370378;19;20018;-72
2023/05/19 05:49:40;;;;;;;4.28;1.90;;;;;;;;;;7370908;19;20043;-73
2023/05/19 05:52:09;;;;;;;5.68;1.92;;;;;;;;;;7389480;19;20007;-72
2023/05/19 05:54:35;;;;;;;6.53;2.13;;;;;;;;;;7391676;19;20034;-72
2023/05/19 05:57:01;;;;;;;7.78;1.92;;;;;;;;;;7369395;19;20014;-72
2023/05/19 05:59:26;;;;;;;5.00;1.92;;;;;;;;;;7369162;19;20018;-72
2023/05/19 06:01:52;;;;;;;7.78;2.35;;;;;;;;;;7364990;19;20006;-72
2023/05/19 06:04:17;;;;;;;4.30;1.80;;;;;;;;;;7367145;19;20074;-73
2023/05/19 06:06:43;;;;;;;6.35;1.98;;;;;;;;;;7390117;19;20566;-72
2023/05/19 06:09:08;;;;;;;4.25;1.52;;;;;;;;;;7365775;19;20024;-72
2023/05/19 06:11:33;;;;;;;5.45;1.90;;;;;;;;;;7367863;19;20002;-72
2023/05/19 06:13:58;;;;;;;6.72;2.00;;;;;;;;;;7369247;19;20406;-73
2023/05/19 06:16:24;;;;;;;2.80;1.50;;;;;;;;;;7370160;19;20081;-73
2023/05/19 06:18:49;;;;;;;4.72;1.45;;;;;;;;;;7389273;19;20102;-71
2023/05/19 06:21:16;;;;;;;8.75;2.00;;;;;;;;;;7368606;19;20372;-72
2023/05/19 06:23:42;;;;;;;4.82;2.28;;;;;;;;;;7373967;19;20003;-72
2023/05/19 06:26:07;;;;;;;4.07;1.85;;;;;;;;;;7375039;19;20010;-72
2023/05/19 06:28:33;;;;;;;3.00;1.52;;;;;;;;;;7375001;19;20023;-72
2023/05/19 06:30:58;;;;;;;5.78;2.13;;;;;;;;;;7395409;19;20006;-72
2023/05/19 06:33:24;;;;;;;7.78;1.95;;;;;;;;;;7375377;19;20006;-72
2023/05/19 06:35:50;;;;;;;2.95;1.35;;;;;;;;;;7374463;19;20002;-72
2023/05/19 06:38:15;;;;;;;6.00;2.00;;;;;;;;;;7372490;19;20022;-72
2023/05/19 06:40:40;;;;;;;6.18;2.10;;;;;;;;;;7374624;19;20078;-72
2023/05/19 06:43:06;;;;;;;9.13;1.95;;;;;;;;;;7395476;19;20484;-73
2023/05/19 06:45:31;;;;;;;6.40;2.03;;;;;;;;;;7380510;19;20003;-72
2023/05/19 06:47:57;;;;;;;5.70;1.98;;;;;;;;;;7374177;19;20528;-73
2023/05/19 06:50:23;;;;;;;4.97;1.92;;;;;;;;;;7374592;19;19999;-72
2023/05/19 06:52:49;;;;;;;5.40;2.13;;;;;;;;;;7376558;19;20065;-72
2023/05/19 06:55:15;;;;;;;7.22;2.10;;;;;;;;;;7374702;19;20009;-71
2023/05/19 06:57:40;;;;;;;7.07;1.98;;;;;;;;;;7393504;19;19999;-71
2023/05/19 07:00:11;;;;;;;7.18;2.40;;;;;;;;;;7373135;19;20014;-72
2023/05/19 07:02:36;;;;;;;8.50;2.35;;;;;;;;;;7376671;19;20369;-72
2023/05/19 07:05:02;;;;;;;6.22;2.00;;;;;;;;;;7375139;19;20107;-73
2023/05/19 07:07:27;;;;;;;8.50;2.20;;;;;;;;;;7372772;19;20014;-73
2023/05/19 07:09:53;;;;;;;7.10;1.95;;;;;;;;;;7398024;19;20020;-73
2023/05/19 07:12:18;;;;;;;4.55;1.50;;;;;;;;;;7375483;19;20015;-73
2023/05/19 07:14:44;;;;;;;7.35;1.77;;;;;;;;;;7373752;19;20007;-73
2023/05/19 07:17:09;;;;;;;6.38;2.20;;;;;;;;;;7372501;19;20034;-71
2023/05/19 07:19:35;;;;;;;5.78;2.30;;;;;;;;;;7374450;19;20381;-72
2023/05/19 07:22:00;;;;;;;10.38;2.20;;;;;;;;;;7397903;19;20035;-73
2023/05/19 07:24:26;;;;;;;5.70;2.10;;;;;;;;;;7381254;19;20664;-74
2023/05/19 07:26:51;;;;;;;6.53;2.45;;;;;;;;;;7375326;19;20052;-74
2023/05/19 07:29:17;;;;;;;6.95;2.60;;;;;;;;;;7378533;19;20015;-73
2023/05/19 07:31:42;;;;;;;7.80;2.28;;;;;;;;;;7374360;19;20010;-73
2023/05/19 07:34:07;;;;;;;5.25;1.80;;;;;;;;;;7381296;19;20002;-75
2023/05/19 07:36:33;;;;;;;6.63;1.85;;;;;;;;;;7394918;19;19999;-77
2023/05/19 07:38:58;;;;;;;5.53;1.92;;;;;;;;;;7376625;19;20596;-77
2023/05/19 07:41:23;;;;;;;6.82;2.20;;;;;;;;;;7377219;19;20389;-68
2023/05/19 07:43:49;;;;;;;7.43;2.88;;;;;;;;;;7401766;19;20010;-74
2023/05/19 07:46:14;;;;;;;6.45;1.88;;;;;;;;;;7404814;19;20007;-73
2023/05/19 07:48:39;;;;;;;5.47;2.00;;;;;;;;;;7425415;19;20050;-73
2023/05/19 07:51:08;;;;;;;6.30;2.00;;;;;;;;;;7402043;19;20007;-72
2023/05/19 07:53:34;;;;;;;7.85;2.10;;;;;;;;;;7390266;19;20021;-73
2023/05/19 07:55:59;;;;;;;6.47;2.45;;;;;;;;;;7383850;19;20015;-72
2023/05/19 07:58:25;;;;;;;8.15;2.10;;;;;;;;;;7373384;19;20318;-74
2023/05/19 08:00:50;;;;;;;7.70;2.03;;;;;;;;;;7396564;19;20078;-74
2023/05/19 08:03:16;;;;;;;6.55;1.88;;;;;;;;;;7375242;19;20366;-73
2023/05/19 08:05:42;;;;;;;11.80;2.40;;;;;;;;;;7374751;19;20085;-72
2023/05/19 08:08:07;;;;;;;12.13;2.35;;;;;;;;;;7372361;19;20015;-67
2023/05/19 08:10:33;;;;;;;5.65;2.10;;;;;;;;;;7371855;19;20011;-67
2023/05/19 08:12:58;;;;;;;8.98;2.10;;;;;;;;;;7393528;19;20010;-68
2023/05/19 08:15:24;;;;;;;5.68;1.90;;;;;;;;;;7368512;19;20103;-68
2023/05/19 08:17:50;;;;;;;9.00;2.20;;;;;;;;;;7366692;19;20103;-67
2023/05/19 08:20:15;;;;;;;4.65;1.95;;;;;;;;;;7369332;19;20018;-67
2023/05/19 08:22:41;;;;;;;5.10;1.80;;;;;;;;;;7369636;19;20027;-66
2023/05/19 08:25:06;;;;;;;7.05;2.10;;;;;;;;;;7385641;19;20002;-67
2023/05/19 08:27:32;;;;;;;6.20;2.50;;;;;;;;;;7378681;19;19999;-67
2023/05/19 08:29:58;;;;;;;5.93;2.10;;;;;;;;;;7369257;19;20085;-68
2023/05/19 08:32:23;;;;;;;12.88;2.60;;;;;;;;;;7371756;19;20045;-68
2023/05/19 08:34:49;;;;;;;7.13;2.40;;;;;;;;;;7372288;19;20013;-67
2023/05/19 08:37:14;;;;;;;6.00;1.85;;;;;;;;;;7367544;19;19999;-67
2023/05/19 08:39:39;;;;;;;6.60;1.90;;;;;;;;;;7392061;19;20003;-68
2023/05/19 08:42:06;;;;;;;4.78;2.17;;;;;;;;;;7371498;19;20044;-69
2023/05/19 08:44:32;;;;;;;8.85;2.30;;;;;;;;;;7371406;19;20049;-69
2023/05/19 08:47:01;;;;;;;7.22;2.40;;;;;;;;;;7370129;19;20350;-69
2023/05/19 08:49:31;;;;;;;9.10;2.00;;;;;;;;;;7370772;19;20093;-68
2023/05/19 08:52:12;;;;;;;9.52;2.40;;;;;;;;;;7391597;19;20035;-69
2023/05/19 08:55:01;;;;;;;8.77;2.20;;;;;;;;;;7370421;19;20007;-69
2023/05/19 08:57:27;;;;;;;4.05;1.88;;;;;;;;;;7368424;19;20086;-69
2023/05/19 08:59:53;;;;;;;6.20;2.30;;;;;;;;;;7370261;19;20041;-68
2023/05/19 09:02:20;;;;;;;9.38;2.60;;;;;;;;;;7370613;19;20522;-69
2023/05/19 09:04:46;;;;;;;5.07;2.22;;;;;;;;;;7370645;19;20119;-68
2023/05/19 09:07:15;;;;;;;6.90;2.30;;;;;;;;;;7367844;19;20006;-69
2023/05/19 09:09:42;;;;;;;6.57;2.28;;;;;;;;;;7392072;19;20009;-68
2023/05/19 09:12:12;;;;;;;7.75;2.13;;;;;;;;;;7370329;19;20010;-68
2023/05/19 09:14:38;;;;;;;5.55;2.08;;;;;;;;;;7370677;19;20044;-68
2023/05/19 09:17:04;;;;;;;8.10;2.35;;;;;;;;;;7369121;19;20018;-68
2023/05/19 09:19:30;;;;;;;5.93;2.00;;;;;;;;;;7369394;19;20559;-68
2023/05/19 09:22:00;;;;;;;4.82;2.00;;;;;;;;;;7391797;19;20006;-68
2023/05/19 09:24:26;;;;;;;7.17;2.30;;;;;;;;;;7369926;19;20470;-69
2023/05/19 09:26:54;;;;;;;11.63;2.28;;;;;;;;;;7369157;19;20263;-68
2023/05/19 09:29:19;;;;;;;5.00;1.90;;;;;;;;;;7369125;19;20010;-69
2023/05/19 09:31:59;;;;;;;3.90;1.70;;;;;;;;;;7368345;19;20041;-69
2023/05/19 09:34:25;;;;;;;6.35;1.85;;;;;;;;;;7370469;19;20044;-72
2023/05/19 09:36:52;;;;;;;9.30;2.17;;;;;;;;;;7387255;19;20387;-72
2023/05/19 09:39:22;;;;;;;6.10;2.00;;;;;;;;;;7373444;19;20010;-67
2023/05/19 09:41:52;;;;;;;6.60;1.92;;;;;;;;;;7370598;19;20017;-71
2023/05/19 09:44:29;;;;;;;2.75;1.33;;;;;;;;;;7370890;19;20015;-75
2023/05/19 09:46:55;;;;;;;9.45;1.90;;;;;;;;;;7370561;19;20434;-74
2023/05/19 09:49:25;;;;;;;7.07;2.00;;;;;;;;;;7367395;19;20366;-76
2023/05/19 09:51:57;;;;;;;4.50;2.00;;;;;;;;;;7390839;19;20003;-74
2023/05/19 09:54:24;;;;;;;4.85;1.75;;;;;;;;;;7368762;19;19998;-73
2023/05/19 09:56:59;;;;;;;8.00;2.45;;;;;;;;;;7368978;19;19999;-73
2023/05/19 09:59:25;;;;;;;4.25;2.10;;;;;;;;;;7368292;19;20022;-72
2023/05/19 10:01:57;;;;;;;3.03;1.38;;;;;;;;;;7368972;19;20025;-75
2023/05/19 10:04:28;;;;;;;4.63;1.83;;;;;;;;;;7370469;19;20006;-74
2023/05/19 10:06:58;;;;;;;7.28;2.30;;;;;;;;;;7392517;19;20341;-76
2023/05/19 10:09:25;;;;;;;4.35;1.70;;;;;;;;;;7374708;19;20007;-73
2023/05/19 10:11:54;;;;;;;6.30;1.88;;;;;;;;;;7370869;19;20002;-71
2023/05/19 10:14:26;;;;;;;6.57;1.80;;;;;;;;;;7368614;19;20007;-71
2023/05/19 10:16:54;;;;;;;5.15;1.70;;;;;;;;;;7369538;19;20008;-74
2023/05/19 10:19:21;;;;;;;2.88;1.50;;;;;;;;;;7366730;19;20006;-68
2023/05/19 10:21:47;;;;;;;5.28;1.77;;;;;;;;;;7390573;19;20024;-71
2023/05/19 10:24:12;;;;;;;4.65;1.73;;;;;;;;;;7367897;19;20010;-69
2023/05/19 10:26:42;;;;;;;4.07;1.63;;;;;;;;;;7367390;19;20500;-75
2023/05/19 10:29:07;;;;;;;5.50;1.80;;;;;;;;;;7363573;19;20007;-73
2023/05/19 10:31:34;;;;;;;3.95;1.50;;;;;;;;;;7367226;19;20368;-74
2023/05/19 10:34:22;;;;;;;6.65;1.77;;;;;;;;;;7391292;19;20006;-74
2023/05/19 10:36:55;;;;;;;5.53;1.70;;;;;;;;;;7368144;19;20090;-73
2023/05/19 10:39:24;;;;;;;6.60;2.00;;;;;;;;;;7375225;19;19998;-75
2023/05/19 10:42:02;;;;;;;4.85;1.70;;;;;;;;;;7369893;19;20006;-73
2023/05/19 10:44:49;;;;;;;5.80;1.70;;;;;;;;;;7362323;19;20015;-73
2023/05/19 10:47:22;;;;;;;4.00;1.52;;;;;;;;;;7365884;19;20013;-78
2023/05/19 10:49:47;;;;;;;3.53;1.73;;;;;;;;;;7370107;19;20013;-77
2023/05/19 10:52:20;;;;;;;3.42;1.70;;;;;;;;;;7367279;19;20007;-74
2023/05/19 10:54:46;;;;;;;6.25;1.60;;;;;;;;;;7394807;19;20011;-73
2023/05/19 10:57:15;;;;;;;8.52;2.10;;;;;;;;;;7366581;19;20011;-69
2023/05/19 10:59:43;;;;;;;6.05;1.80;;;;;;;;;;7367576;19;20469;-76
2023/05/19 11:02:09;;;;;;;6.05;2.50;;;;;;;;;;7368343;19;20357;-77
2023/05/19 11:04:49;;;;;;;5.72;2.00;;;;;;;;;;7376865;19;20039;-75
2023/05/19 11:07:21;;;;;;;6.40;2.00;;;;;;;;;;7370417;19;20086;-76
2023/05/19 11:09:51;;;;;;;5.05;2.13;;;;;;;;;;7398941;19;20082;-76
2023/05/19 11:12:23;;;;;;;3.10;1.70;;;;;;;;;;7379238;19;20006;-75
2023/05/19 11:14:52;;;;;;;6.18;1.90;;;;;;;;;;7382343;19;20515;-73
2023/05/19 11:17:20;;;;;;;6.68;1.80;;;;;;;;;;7383714;19;20010;-74
2023/05/19 11:19:56;;;;;;;6.85;2.03;;;;;;;;;;7375409;19;20051;-74
2023/05/19 11:22:26;;;;;;;5.60;1.80;;;;;;;;;;7375392;19;20323;-74
2023/05/19 11:24:54;;;;;;;4.55;1.90;;;;;;;;;;7399161;19;20007;-74
2023/05/19 11:27:30;;;;;;;6.13;2.25;;;;;;;;;;7372762;19;20040;-74
2023/05/19 11:30:13;;;;;;;4.63;2.10;;;;;;;;;;7376666;19;20028;-74
2023/05/19 11:32:41;;;;;;;3.30;1.70;;;;;;;;;;7375993;19;20010;-74
2023/05/19 11:35:08;;;;;;;7.07;1.77;;;;;;;;;;7376226;19;20017;-73
2023/05/19 11:37:34;;;;;;;9.40;1.92;;;;;;;;;;7373066;19;20006;-72
2023/05/19 11:40:07;;;;;;;7.97;2.00;;;;;;;;;;7394573;19;20127;-72
2023/05/19 11:42:34;;;;;;;5.82;2.00;;;;;;;;;;7374251;19;20378;-73
2023/05/19 11:45:03;;;;;;;5.00;1.80;;;;;;;;;;7374794;19;20010;-67
2023/05/19 11:47:30;;;;;;;7.22;1.80;;;;;;;;;;7371459;19;20019;-71
2023/05/19 11:49:55;;;;;;;3.40;1.52;;;;;;;;;;7374605;19;20026;-74
2023/05/19 11:52:24;;;;;;;3.63;1.83;;;;;;;;;;7373884;19;20007;-74
2023/05/19 11:54:50;;;;;;;4.40;1.80;;;;;;;;;;7393915;19;20043;-74
2023/05/19 11:57:16;;;;;;;3.53;1.77;;;;;;;;;;7370029;19;20014;-74
2023/05/19 11:59:44;;;;;;;4.80;1.80;;;;;;;;;;7373317;19;20021;-74
2023/05/19 12:02:20;;;;;;;5.88;1.63;;;;;;;;;;7373313;19;20017;-74
2023/05/19 12:04:48;;;;;;;3.95;1.75;;;;;;;;;;7372330;19;20508;-73
2023/05/19 12:07:22;;;;;;;4.55;1.90;;;;;;;;;;7370627;19;20002;-74
2023/05/19 12:09:51;;;;;;;3.30;1.90;;;;;;;;;;7393694;19;20018;-73
2023/05/19 12:12:19;;;;;;;5.15;1.63;;;;;;;;;;7372371;19;20003;-73
2023/05/19 12:14:49;;;;;;;5.30;1.73;;;;;;;;;;7372402;19;20014;-74
2023/05/19 12:17:22;;;;;;;6.18;2.00;;;;;;;;;;7371859;19;20014;-74
2023/05/19 12:19:48;;;;;;;2.58;1.67;;;;;;;;;;7370518;19;20007;-73
2023/05/19 12:22:16;;;;;;;3.67;2.08;;;;;;;;;;7369307;19;20031;-73
2023/05/19 12:24:42;;;;;;;3.92;1.75;;;;;;;;;;7393335;19;20014;-74
2023/05/19 12:27:18;;;;;;;6.82;2.10;;;;;;;;;;7370772;19;20050;-74
2023/05/19 12:29:51;;;;;;;2.28;1.55;;;;;;;;;;7372334;19;20002;-73
2023/05/19 12:32:17;;;;;;;6.72;1.85;;;;;;;;;;7372731;19;20117;-71
2023/05/19 12:34:42;;;;;;;3.53;1.88;;;;;;;;;;7372925;19;20708;-75
2023/05/19 12:37:09;;;;;;;5.40;1.90;;;;;;;;;;7373802;19;20330;-76
2023/05/19 12:39:35;;;;;;;4.88;1.90;;;;;;;;;;7396676;19;20389;-73
2023/05/19 12:42:02;;;;;;;4.28;2.03;;;;;;;;;;7373392;19;20041;-76
2023/05/19 12:44:29;;;;;;;5.00;1.80;;;;;;;;;;7371894;19;20498;-72
2023/05/19 12:46:58;;;;;;;6.15;2.03;;;;;;;;;;7366500;19;20018;-70
2023/05/19 12:49:23;;;;;;;5.07;2.03;;;;;;;;;;7368380;19;20444;-71
2023/05/19 12:51:52;;;;;;;5.10;1.50;;;;;;;;;;7392496;19;20002;-73
2023/05/19 12:54:20;;;;;;;3.45;1.80;;;;;;;;;;7377256;19;20027;-72
2023/05/19 12:56:51;;;;;;;5.55;1.80;;;;;;;;;;7377298;19;20003;-73
2023/05/19 12:59:24;;;;;;;7.15;1.92;;;;;;;;;;7369974;19;20054;-70
2023/05/19 13:01:58;;;;;;;6.57;1.58;;;;;;;;;;7376585;19;20002;-74
2023/05/19 13:04:25;;;;;;;3.05;1.60;;;;;;;;;;7383635;19;20010;-71
2023/05/19 13:06:52;;;;;;;7.70;1.80;;;;;;;;;;7395293;19;20121;-73
2023/05/19 13:09:18;;;;;;;5.63;1.85;;;;;;;;;;7373492;19;20052;-71
2023/05/19 13:11:52;;;;;;;4.88;2.03;;;;;;;;;;7373232;19;20021;-71
2023/05/19 13:14:18;;;;;;;4.15;1.90;;;;;;;;;;7368163;19;20017;-71
2023/05/19 13:16:46;;;;;;;5.15;2.35;;;;;;;;;;7368264;19;20073;-69
2023/05/19 13:19:13;;;;;;;8.32;2.65;;;;;;;;;;7365216;19;20358;-70
2023/05/19 13:21:39;;;;;;;9.57;2.60;;;;;;;;;;7395281;19;20074;-74
2023/05/19 13:24:04;;;;;;;6.40;2.63;;;;;;;;;;7375031;19;20390;-71
2023/05/19 13:26:30;;;;;;;5.68;1.95;;;;;;;;;;7373527;19;20012;-71
2023/05/19 13:28:55;;;;;;;6.13;1.95;;;;;;;;;;7373490;19;20006;-71
2023/05/19 13:31:21;;;;;;;5.50;2.00;;;;;;;;;;7379149;19;20011;-72
2023/05/19 13:33:46;;;;;;;5.40;1.85;;;;;;;;;;7400438;19;20018;-73
2023/05/19 13:36:11;;;;;;;3.88;1.80;;;;;;;;;;7371947;19;20023;-74
2023/05/19 13:38:37;;;;;;;4.47;2.05;;;;;;;;;;7370062;19;20018;-73
2023/05/19 13:41:02;;;;;;;6.43;1.90;;;;;;;;;;7369194;19;20036;-73
2023/05/19 13:43:27;;;;;;;4.55;2.05;;;;;;;;;;7369517;19;20014;-73
2023/05/19 13:45:53;;;;;;;7.90;1.98;;;;;;;;;;7391078;19;20017;-74
2023/05/19 13:48:18;;;;;;;7.80;1.90;;;;;;;;;;7368718;19;20093;-73
2023/05/19 13:50:43;;;;;;;2.97;1.70;;;;;;;;;;7369028;19;20007;-71
2023/05/19 13:53:10;;;;;;;4.13;1.88;;;;;;;;;;7368596;19;20577;-75
2023/05/19 13:55:35;;;;;;;6.13;1.70;;;;;;;;;;7362610;19;20014;-74
2023/05/19 13:58:02;;;;;;;3.80;1.98;;;;;;;;;;7386873;19;20045;-73
2023/05/19 14:00:27;;;;;;;7.10;2.20;;;;;;;;;;7371536;19;20014;-78
2023/05/19 14:02:53;;;;;;;5.65;2.08;;;;;;;;;;7370417;19;20536;-76
2023/05/19 14:05:18;;;;;;;5.78;2.20;;;;;;;;;;7371382;19;20017;-76
2023/05/19 14:07:43;;;;;;;5.18;2.03;;;;;;;;;;7368069;19;20019;-76
2023/05/19 14:10:09;;;;;;;6.97;2.67;;;;;;;;;;7367658;19;20041;-74
2023/05/19 14:12:35;;;;;;;4.50;2.03;;;;;;;;;;7400228;19;19998;-78
2023/05/19 14:15:01;;;;;;;5.40;2.03;;;;;;;;;;7373809;19;19998;-74
2023/05/19 14:17:27;;;;;;;6.15;1.92;;;;;;;;;;7364922;19;20010;-72
2023/05/19 14:19:52;;;;;;;4.25;1.90;;;;;;;;;;7365438;19;21060;-73
2023/05/19 14:22:18;;;;;;;4.68;1.92;;;;;;;;;;7367936;19;20007;-76
2023/05/19 14:24:43;;;;;;;4.72;1.88;;;;;;;;;;7387009;19;20026;-75
2023/05/19 14:27:09;;;;;;;6.43;1.92;;;;;;;;;;7364647;19;20011;-73
2023/05/19 14:29:34;;;;;;;4.93;2.00;;;;;;;;;;7363577;19;20335;-74
2023/05/19 14:32:01;;;;;;;7.47;2.05;;;;;;;;;;7363937;19;20014;-75
2023/05/19 14:34:26;;;;;;;4.25;2.00;;;;;;;;;;7366169;19;20028;-75
2023/05/19 14:36:52;;;;;;;6.03;1.90;;;;;;;;;;7384352;19;20014;-74
2023/05/19 14:39:17;;;;;;;4.30;1.95;;;;;;;;;;7359491;19;20011;-72
2023/05/19 14:41:43;;;;;;;6.45;2.28;;;;;;;;;;7360030;19;20107;-68
2023/05/19 14:44:08;;;;;;;3.63;1.80;;;;;;;;;;7366580;19;20006;-69